sensor_id;sensor_type;location;lat;lon;timestamp;pressure;altitude;pressure_sealevel;temperature;humidity
55604;BME280;41468;48.838;9.330;2023-01-26T00:01:17;98894.72;;;2.39;90.05
55604;BME280;41468;48.838;9.330;2023-01-26T00:03:44;98886.81;;;2.29;90.45
55604;BME280;41468;48.838;9.330;2023-01-26T00:06:14;98889.00;;;2.27;91.23
55604;BME280;41468;48.838;9.330;2023-01-26T00:08:44;98887.53;;;2.35;90.93
55604;BME280;41468;48.838;9.330;2023-01-26T00:11:13;98881.22;;;2.26;91.33
55604;BME280;41468;48.838;9.330;2023-01-26T00:13:41;98881.53;;;2.24;91.33
55604;BME280;41468;48.838;9.330;2023-01-26T00:16:12;98878.03;;;2.24;91.30
55604;BME280;41468;48.838;9.330;2023-01-26T00:18:40;98871.88;;;2.23;91.70
55604;BME280;41468;48.838;9.330;2023-01-26T00:21:12;98878.03;;;2.24;91.82
55604;BME280;41468;48.838;9.330;2023-01-26T00:23:39;98872.94;;;2.22;91.60
55604;BME280;41468;48.838;9.330;2023-01-26T00:26:07;98864.06;;;2.21;91.86
55604;BME280;41468;48.838;9.330;2023-01-26T00:28:34;98857.97;;;2.16;91.54
55604;BME280;41468;48.838;9.330;2023-01-26T00:31:06;98862.34;;;2.12;91.62
55604;BME280;41468;48.838;9.330;2023-01-26T00:33:33;98846.41;;;2.15;91.89
55604;BME280;41468;48.838;9.330;2023-01-26T00:35:59;98852.97;;;2.09;91.74
55604;BME280;41468;48.838;9.330;2023-01-26T00:38:26;98838.50;;;2.05;92.32
55604;BME280;41468;48.838;9.330;2023-01-26T00:40:53;98847.66;;;2.04;92.67
55604;BME280;41468;48.838;9.330;2023-01-26T00:43:20;98840.69;;;2.03;92.54
55604;BME280;41468;48.838;9.330;2023-01-26T00:45:46;98831.81;;;2.16;92.34
55604;BME280;41468;48.838;9.330;2023-01-26T00:48:14;98834.00;;;2.14;92.17
55604;BME280;41468;48.838;9.330;2023-01-26T00:50:41;98832.25;;;2.10;92.45
55604;BME280;41468;48.838;9.330;2023-01-26T00:53:08;98826.94;;;2.05;92.63
55604;BME280;41468;48.838;9.330;2023-01-26T00:55:35;98823.84;;;2.25;92.17
55604;BME280;41468;48.838;9.330;2023-01-26T00:58:04;98825.47;;;2.12;92.12
55604;BME280;41468;48.838;9.330;2023-01-26T01:00:32;98826.53;;;2.11;91.99
55604;BME280;41468;48.838;9.330;2023-01-26T01:02:59;98825.84;;;2.06;92.24
55604;BME280;41468;48.838;9.330;2023-01-26T01:05:28;98830.25;;;2.15;92.17
55604;BME280;41468;48.838;9.330;2023-01-26T01:07:55;98827.53;;;2.15;92.00
55604;BME280;41468;48.838;9.330;2023-01-26T01:10:22;98822.25;;;2.24;91.28
55604;BME280;41468;48.838;9.330;2023-01-26T01:12:49;98823.22;;;2.28;90.80
55604;BME280;41468;48.838;9.330;2023-01-26T01:15:16;98817.16;;;2.22;91.53
55604;BME280;41468;48.838;9.330;2023-01-26T01:17:42;98813.28;;;2.29;91.09
55604;BME280;41468;48.838;9.330;2023-01-26T01:20:10;98822.84;;;2.21;91.17
55604;BME280;41468;48.838;9.330;2023-01-26T01:22:37;98827.63;;;2.38;90.65
55604;BME280;41468;48.838;9.330;2023-01-26T01:25:04;98826.13;;;2.04;91.44
55604;BME280;41468;48.838;9.330;2023-01-26T01:27:31;98822.63;;;2.17;92.17
55604;BME280;41468;48.838;9.330;2023-01-26T01:29:57;98816.28;;;2.13;91.89
55604;BME280;41468;48.838;9.330;2023-01-26T01:32:24;98817.84;;;2.28;91.48
55604;BME280;41468;48.838;9.330;2023-01-26T01:34:50;98816.16;;;2.18;91.04
55604;BME280;41468;48.838;9.330;2023-01-26T01:37:17;98817.16;;;2.22;90.89
55604;BME280;41468;48.838;9.330;2023-01-26T01:39:43;98814.97;;;2.25;90.96
55604;BME280;41468;48.838;9.330;2023-01-26T01:42:11;98805.91;;;2.20;91.16
55604;BME280;41468;48.838;9.330;2023-01-26T01:44:38;98809.88;;;2.23;90.87
55604;BME280;41468;48.838;9.330;2023-01-26T01:47:09;98802.00;;;2.13;91.24
55604;BME280;41468;48.838;9.330;2023-01-26T01:49:41;98804.28;;;2.06;91.50
55604;BME280;41468;48.838;9.330;2023-01-26T01:52:28;98808.47;;;1.98;92.15
55604;BME280;41468;48.838;9.330;2023-01-26T01:54:59;98801.09;;;2.17;91.74
55604;BME280;41468;48.838;9.330;2023-01-26T01:57:36;98800.59;;;2.15;91.31
55604;BME280;41468;48.838;9.330;2023-01-26T02:00:13;98802.59;;;2.24;91.79
55604;BME280;41468;48.838;9.330;2023-01-26T02:02:41;98804.09;;;2.16;91.43
55604;BME280;41468;48.838;9.330;2023-01-26T02:05:24;98792.91;;;2.09;92.03
55604;BME280;41468;48.838;9.330;2023-01-26T02:07:53;98795.31;;;2.10;92.22
55604;BME280;41468;48.838;9.330;2023-01-26T02:10:20;98796.63;;;1.99;92.93
55604;BME280;41468;48.838;9.330;2023-01-26T02:12:49;98788.72;;;1.89;93.39
55604;BME280;41468;48.838;9.330;2023-01-26T02:15:18;98788.53;;;1.99;93.32
55604;BME280;41468;48.838;9.330;2023-01-26T02:17:44;98787.53;;;1.81;94.29
55604;BME280;41468;48.838;9.330;2023-01-26T02:20:31;98787.22;;;1.83;94.43
55604;BME280;41468;48.838;9.330;2023-01-26T02:26:06;98784.91;;;1.76;94.38
55604;BME280;41468;48.838;9.330;2023-01-26T02:28:33;98777.03;;;1.80;94.48
55604;BME280;41468;48.838;9.330;2023-01-26T02:31:00;98785.72;;;1.76;94.53
55604;BME280;41468;48.838;9.330;2023-01-26T02:33:29;98777.16;;;1.88;94.26
55604;BME280;41468;48.838;9.330;2023-01-26T02:35:57;98779.84;;;1.88;94.12
55604;BME280;41468;48.838;9.330;2023-01-26T02:38:27;98780.41;;;1.71;95.10
55604;BME280;41468;48.838;9.330;2023-01-26T02:40:58;98767.47;;;1.73;95.23
55604;BME280;41468;48.838;9.330;2023-01-26T02:43:28;98767.19;;;1.75;96.04
55604;BME280;41468;48.838;9.330;2023-01-26T02:45:54;98758.78;;;1.76;95.74
55604;BME280;41468;48.838;9.330;2023-01-26T02:48:21;98759.19;;;1.84;95.21
55604;BME280;41468;48.838;9.330;2023-01-26T02:51:06;98758.78;;;1.76;95.73
55604;BME280;41468;48.838;9.330;2023-01-26T02:53:33;98752.09;;;1.60;95.80
55604;BME280;41468;48.838;9.330;2023-01-26T02:56:00;98749.22;;;1.70;96.17
55604;BME280;41468;48.838;9.330;2023-01-26T02:58:27;98750.59;;;1.68;95.75
55604;BME280;41468;48.838;9.330;2023-01-26T03:00:53;98750.00;;;1.71;95.77
55604;BME280;41468;48.838;9.330;2023-01-26T03:03:23;98755.19;;;1.67;96.22
55604;BME280;41468;48.838;9.330;2023-01-26T03:05:50;98750.81;;;1.71;96.47
55604;BME280;41468;48.838;9.330;2023-01-26T03:08:17;98753.09;;;1.64;96.22
55604;BME280;41468;48.838;9.330;2023-01-26T03:10:44;98737.84;;;1.73;96.00
55604;BME280;41468;48.838;9.330;2023-01-26T03:13:12;98739.56;;;1.69;96.17
55604;BME280;41468;48.838;9.330;2023-01-26T03:15:40;98737.94;;;1.68;96.19
55604;BME280;41468;48.838;9.330;2023-01-26T03:18:22;98740.22;;;1.61;96.78
55604;BME280;41468;48.838;9.330;2023-01-26T03:21:12;98734.75;;;1.52;97.53
55604;BME280;41468;48.838;9.330;2023-01-26T03:23:59;98729.06;;;1.68;97.26
55604;BME280;41468;48.838;9.330;2023-01-26T03:26:44;98719.78;;;1.60;96.39
55604;BME280;41468;48.838;9.330;2023-01-26T03:29:30;98723.09;;;1.57;96.63
55604;BME280;41468;48.838;9.330;2023-01-26T03:31:57;98720.66;;;1.42;97.34
55604;BME280;41468;48.838;9.330;2023-01-26T03:34:25;98716.19;;;1.37;98.46
55604;BME280;41468;48.838;9.330;2023-01-26T03:36:52;98724.28;;;1.37;98.36
55604;BME280;41468;48.838;9.330;2023-01-26T03:39:18;98715.63;;;1.54;98.11
55604;BME280;41468;48.838;9.330;2023-01-26T03:42:04;98718.69;;;1.47;98.20
55604;BME280;41468;48.838;9.330;2023-01-26T03:44:49;98718.50;;;1.44;97.71
55604;BME280;41468;48.838;9.330;2023-01-26T03:47:35;98724.75;;;1.53;97.52
55604;BME280;41468;48.838;9.330;2023-01-26T03:50:20;98716.91;;;1.57;97.29
55604;BME280;41468;48.838;9.330;2023-01-26T03:53:20;98717.59;;;1.48;97.96
55604;BME280;41468;48.838;9.330;2023-01-26T03:56:08;98725.69;;;1.48;97.63
55604;BME280;41468;48.838;9.330;2023-01-26T03:58:56;98728.06;;;1.50;98.02
55604;BME280;41468;48.838;9.330;2023-01-26T04:01:24;98723.47;;;1.50;97.84
55604;BME280;41468;48.838;9.330;2023-01-26T04:03:55;98726.97;;;1.51;97.27
55604;BME280;41468;48.838;9.330;2023-01-26T04:06:42;98727.56;;;1.48;97.09
55604;BME280;41468;48.838;9.330;2023-01-26T04:09:29;98726.97;;;1.51;97.11
55604;BME280;41468;48.838;9.330;2023-01-26T04:11:56;98722.59;;;1.55;96.91
55604;BME280;41468;48.838;9.330;2023-01-26T04:14:22;98729.56;;;1.56;96.78
55604;BME280;41468;48.838;9.330;2023-01-26T04:17:16;98728.06;;;1.50;97.09
55604;BME280;41468;48.838;9.330;2023-01-26T04:20:04;98717.78;;;1.52;96.80
55604;BME280;41468;48.838;9.330;2023-01-26T04:22:54;98722.91;;;1.53;97.23
55604;BME280;41468;48.838;9.330;2023-01-26T04:25:20;98724.66;;;1.58;96.35
55604;BME280;41468;48.838;9.330;2023-01-26T04:27:47;98716.00;;;1.47;97.32
55604;BME280;41468;48.838;9.330;2023-01-26T04:30:15;98718.69;;;1.47;97.11
55604;BME280;41468;48.838;9.330;2023-01-26T04:32:42;98714.50;;;1.55;96.88
55604;BME280;41468;48.838;9.330;2023-01-26T04:35:09;98715.91;;;1.52;96.14
55604;BME280;41468;48.838;9.330;2023-01-26T04:37:37;98710.81;;;1.37;97.34
55604;BME280;41468;48.838;9.330;2023-01-26T04:40:05;98706.31;;;1.32;97.83
55604;BME280;41468;48.838;9.330;2023-01-26T04:42:32;98702.69;;;1.23;97.46
55604;BME280;41468;48.838;9.330;2023-01-26T04:44:58;98702.16;;;1.40;97.15
55604;BME280;41468;48.838;9.330;2023-01-26T04:47:25;98704.94;;;1.35;97.56
55604;BME280;41468;48.838;9.330;2023-01-26T04:49:54;98704.31;;;1.38;97.68
55604;BME280;41468;48.838;9.330;2023-01-26T04:52:21;98700.75;;;1.43;97.00
55604;BME280;41468;48.838;9.330;2023-01-26T04:54:47;98691.97;;;1.37;96.83
55604;BME280;41468;48.838;9.330;2023-01-26T04:57:14;98699.22;;;1.23;97.76
55604;BME280;41468;48.838;9.330;2023-01-26T04:59:40;98696.53;;;1.37;97.64
55604;BME280;41468;48.838;9.330;2023-01-26T05:02:08;98696.25;;;1.24;97.97
55604;BME280;41468;48.838;9.330;2023-01-26T05:04:34;98695.84;;;1.31;98.59
55604;BME280;41468;48.838;9.330;2023-01-26T05:07:01;98694.53;;;1.28;98.07
55604;BME280;41468;48.838;9.330;2023-01-26T05:09:28;98691.56;;;1.30;97.51
55604;BME280;41468;48.838;9.330;2023-01-26T05:11:54;98694.97;;;1.36;97.47
55604;BME280;41468;48.838;9.330;2023-01-26T05:14:41;98695.47;;;1.38;97.14
55604;BME280;41468;48.838;9.330;2023-01-26T05:17:08;98697.81;;;1.25;97.52
55604;BME280;41468;48.838;9.330;2023-01-26T05:19:34;98699.75;;;1.39;97.06
55604;BME280;41468;48.838;9.330;2023-01-26T05:22:01;98693.84;;;1.37;97.17
55604;BME280;41468;48.838;9.330;2023-01-26T05:24:28;98687.56;;;1.27;97.56
55604;BME280;41468;48.838;9.330;2023-01-26T05:26:54;98690.84;;;1.10;97.94
55604;BME280;41468;48.838;9.330;2023-01-26T05:29:41;98697.72;;;1.17;98.37
55604;BME280;41468;48.838;9.330;2023-01-26T05:32:07;98704.19;;;1.16;97.76
55604;BME280;41468;48.838;9.330;2023-01-26T05:34:39;98699.09;;;1.14;98.36
55604;BME280;41468;48.838;9.330;2023-01-26T05:37:05;98700.69;;;1.15;99.00
55604;BME280;41468;48.838;9.330;2023-01-26T05:39:32;98701.00;;;1.14;98.93
55604;BME280;41468;48.838;9.330;2023-01-26T05:41:58;98702.69;;;1.09;99.32
55604;BME280;41468;48.838;9.330;2023-01-26T05:44:25;98707.47;;;1.13;99.53
55604;BME280;41468;48.838;9.330;2023-01-26T05:46:52;98703.28;;;1.20;98.68
55604;BME280;41468;48.838;9.330;2023-01-26T05:49:18;98702.91;;;1.13;98.32
55604;BME280;41468;48.838;9.330;2023-01-26T05:51:45;98698.59;;;1.12;98.35
55604;BME280;41468;48.838;9.330;2023-01-26T05:54:12;98699.78;;;1.06;98.16
55604;BME280;41468;48.838;9.330;2023-01-26T05:56:38;98701.88;;;1.09;98.65
55604;BME280;41468;48.838;9.330;2023-01-26T05:59:16;98705.09;;;1.11;98.48
55604;BME280;41468;48.838;9.330;2023-01-26T06:01:43;98711.94;;;1.03;98.74
55604;BME280;41468;48.838;9.330;2023-01-26T06:04:09;98709.59;;;1.16;98.79
55604;BME280;41468;48.838;9.330;2023-01-26T06:06:36;98702.06;;;1.13;99.26
55604;BME280;41468;48.838;9.330;2023-01-26T06:09:07;98713.28;;;1.33;97.35
55604;BME280;41468;48.838;9.330;2023-01-26T06:11:45;98707.28;;;1.23;97.45
55604;BME280;41468;48.838;9.330;2023-01-26T06:14:11;98709.59;;;1.16;97.15
55604;BME280;41468;48.838;9.330;2023-01-26T06:16:38;98708.97;;;1.05;97.62
55604;BME280;41468;48.838;9.330;2023-01-26T06:19:06;98705.09;;;1.11;97.62
55604;BME280;41468;48.838;9.330;2023-01-26T06:21:34;98709.94;;;1.09;97.42
55604;BME280;41468;48.838;9.330;2023-01-26T06:24:00;98708.28;;;1.13;96.69
55604;BME280;41468;48.838;9.330;2023-01-26T06:26:27;98707.78;;;1.11;97.36
55604;BME280;41468;48.838;9.330;2023-01-26T06:28:54;98713.31;;;1.01;97.37
55604;BME280;41468;48.838;9.330;2023-01-26T06:31:21;98712.81;;;0.99;97.71
55604;BME280;41468;48.838;9.330;2023-01-26T06:33:55;98715.13;;;1.05;98.07
55604;BME280;41468;48.838;9.330;2023-01-26T06:36:22;98714.41;;;1.00;98.30
55604;BME280;41468;48.838;9.330;2023-01-26T06:38:49;98715.81;;;0.97;98.03
55604;BME280;41468;48.838;9.330;2023-01-26T06:41:22;98719.28;;;0.98;98.24
55604;BME280;41468;48.838;9.330;2023-01-26T06:43:49;98717.31;;;1.03;98.43
55604;BME280;41468;48.838;9.330;2023-01-26T06:46:16;98714.34;;;1.05;97.84
55604;BME280;41468;48.838;9.330;2023-01-26T06:48:43;98711.44;;;1.15;97.85
55604;BME280;41468;48.838;9.330;2023-01-26T06:53:47;98708.16;;;1.18;96.49
55604;BME280;41468;48.838;9.330;2023-01-26T06:56:14;98708.47;;;1.17;96.26
55604;BME280;41468;48.838;9.330;2023-01-26T06:58:40;98710.28;;;1.21;96.06
55604;BME280;41468;48.838;9.330;2023-01-26T07:01:10;98712.56;;;1.14;96.06
55604;BME280;41468;48.838;9.330;2023-01-26T07:03:52;98718.19;;;1.45;96.55
55604;BME280;41468;48.838;9.330;2023-01-26T07:06:19;98715.59;;;1.26;95.94
55604;BME280;41468;48.838;9.330;2023-01-26T07:08:46;98713.47;;;1.23;95.32
55604;BME280;41468;48.838;9.330;2023-01-26T07:11:13;98715.75;;;1.16;96.37
55604;BME280;41468;48.838;9.330;2023-01-26T07:13:42;98721.25;;;1.25;96.17
55604;BME280;41468;48.838;9.330;2023-01-26T07:16:13;98718.84;;;1.23;96.07
55604;BME280;41468;48.838;9.330;2023-01-26T07:18:40;98718.22;;;1.13;96.65
55604;BME280;41468;48.838;9.330;2023-01-26T07:21:14;98728.69;;;1.14;96.82
55604;BME280;41468;48.838;9.330;2023-01-26T07:23:41;98728.78;;;1.09;96.37
55604;BME280;41468;48.838;9.330;2023-01-26T07:26:08;98733.06;;;1.10;95.85
55604;BME280;41468;48.838;9.330;2023-01-26T07:28:35;98730.59;;;1.14;96.60
55604;BME280;41468;48.838;9.330;2023-01-26T07:31:06;98731.59;;;1.18;95.79
55604;BME280;41468;48.838;9.330;2023-01-26T07:33:33;98731.72;;;1.26;95.92
55604;BME280;41468;48.838;9.330;2023-01-26T07:36:00;98735.81;;;1.24;95.48
55604;BME280;41468;48.838;9.330;2023-01-26T07:38:27;98733.59;;;1.26;95.48
55604;BME280;41468;48.838;9.330;2023-01-26T07:40:55;98729.59;;;1.23;94.95
55604;BME280;41468;48.838;9.330;2023-01-26T07:43:34;98729.16;;;2.18;100.00
55604;BME280;41468;48.838;9.330;2023-01-26T07:46:01;98725.78;;;1.98;92.36
55604;BME280;41468;48.838;9.330;2023-01-26T07:48:28;98728.38;;;1.76;91.45
55604;BME280;41468;48.838;9.330;2023-01-26T07:50:58;98735.44;;;1.58;92.38
55604;BME280;41468;48.838;9.330;2023-01-26T07:53:26;98736.72;;;1.47;92.61
55604;BME280;41468;48.838;9.330;2023-01-26T07:56:15;98726.44;;;1.35;93.51
55604;BME280;41468;48.838;9.330;2023-01-26T07:58:53;98737.88;;;1.13;94.61
55604;BME280;41468;48.838;9.330;2023-01-26T08:01:20;98732.78;;;1.12;94.76
55604;BME280;41468;48.838;9.330;2023-01-26T08:03:51;98728.97;;;1.13;95.07
55604;BME280;41468;48.838;9.330;2023-01-26T08:06:19;98735.56;;;1.20;94.63
55604;BME280;41468;48.838;9.330;2023-01-26T08:08:47;98728.59;;;1.19;94.64
55604;BME280;41468;48.838;9.330;2023-01-26T08:11:19;98732.38;;;1.18;94.63
55604;BME280;41468;48.838;9.330;2023-01-26T08:13:48;98729.06;;;1.07;94.65
55604;BME280;41468;48.838;9.330;2023-01-26T08:16:15;98729.81;;;1.13;94.84
55604;BME280;41468;48.838;9.330;2023-01-26T08:18:43;98722.22;;;1.15;95.52
55604;BME280;41468;48.838;9.330;2023-01-26T08:21:11;98726.91;;;1.23;94.07
55604;BME280;41468;48.838;9.330;2023-01-26T08:23:38;98722.13;;;1.20;94.29
55604;BME280;41468;48.838;9.330;2023-01-26T08:26:12;98730.78;;;1.17;94.87
55604;BME280;41468;48.838;9.330;2023-01-26T08:28:39;98720.66;;;1.28;94.90
55604;BME280;41468;48.838;9.330;2023-01-26T08:31:11;98720.75;;;1.23;94.85
55604;BME280;41468;48.838;9.330;2023-01-26T08:33:40;98726.81;;;1.28;94.44
55604;BME280;41468;48.838;9.330;2023-01-26T08:36:11;98721.94;;;1.30;94.37
55604;BME280;41468;48.838;9.330;2023-01-26T08:38:38;98720.38;;;1.29;93.60
55604;BME280;41468;48.838;9.330;2023-01-26T08:41:05;98715.97;;;1.33;93.14
55604;BME280;41468;48.838;9.330;2023-01-26T08:43:33;98712.16;;;1.21;93.04
55604;BME280;41468;48.838;9.330;2023-01-26T08:46:00;98722.63;;;1.22;93.18
55604;BME280;41468;48.838;9.330;2023-01-26T08:48:31;98729.41;;;1.20;93.21
55604;BME280;41468;48.838;9.330;2023-01-26T08:51:00;98720.34;;;1.16;93.37
55604;BME280;41468;48.838;9.330;2023-01-26T08:53:32;98721.53;;;1.23;93.78
55604;BME280;41468;48.838;9.330;2023-01-26T08:56:03;98714.47;;;1.27;92.54
55604;BME280;41468;48.838;9.330;2023-01-26T08:58:30;98714.47;;;1.27;92.45
55604;BME280;41468;48.838;9.330;2023-01-26T09:00:56;98717.28;;;1.36;92.57
55604;BME280;41468;48.838;9.330;2023-01-26T09:03:24;98709.38;;;1.26;92.40
55604;BME280;41468;48.838;9.330;2023-01-26T09:05:51;98717.69;;;1.29;92.50
55604;BME280;41468;48.838;9.330;2023-01-26T09:08:17;98715.66;;;1.21;92.06
55604;BME280;41468;48.838;9.330;2023-01-26T09:10:44;98712.09;;;1.40;91.40
55604;BME280;41468;48.838;9.330;2023-01-26T09:13:11;98717.09;;;1.32;90.49
55604;BME280;41468;48.838;9.330;2023-01-26T09:15:37;98711.97;;;1.31;91.13
55604;BME280;41468;48.838;9.330;2023-01-26T09:18:04;98712.81;;;1.45;90.50
55604;BME280;41468;48.838;9.330;2023-01-26T09:20:31;98707.31;;;1.37;90.98
55604;BME280;41468;48.838;9.330;2023-01-26T09:22:57;98717.28;;;1.36;91.43
55604;BME280;41468;48.838;9.330;2023-01-26T09:25:24;98713.50;;;1.37;91.19
55604;BME280;41468;48.838;9.330;2023-01-26T09:27:51;98718.09;;;1.50;91.10
55604;BME280;41468;48.838;9.330;2023-01-26T09:30:17;98720.66;;;1.42;87.80
55604;BME280;41468;48.838;9.330;2023-01-26T09:32:44;98731.84;;;1.49;85.27
55604;BME280;41468;48.838;9.330;2023-01-26T09:35:11;98726.28;;;1.45;85.84
55604;BME280;41468;48.838;9.330;2023-01-26T09:37:42;98730.03;;;1.44;86.74
55604;BME280;41468;48.838;9.330;2023-01-26T09:40:36;98732.28;;;1.56;85.80
55604;BME280;41468;48.838;9.330;2023-01-26T09:51:36;98739.16;;;1.62;85.55
55604;BME280;41468;48.838;9.330;2023-01-26T09:57:04;98739.75;;;1.59;86.20
55604;BME280;41468;48.838;9.330;2023-01-26T09:59:58;98728.47;;;1.57;87.09
55604;BME280;41468;48.838;9.330;2023-01-26T10:02:55;98721.97;;;1.58;87.27
55604;BME280;41468;48.838;9.330;2023-01-26T10:05:53;98723.28;;;1.47;87.92
55604;BME280;41468;48.838;9.330;2023-01-26T10:08:23;98726.47;;;1.63;87.49
55604;BME280;41468;48.838;9.330;2023-01-26T10:10:59;98720.13;;;1.59;87.54
55604;BME280;41468;48.838;9.330;2023-01-26T10:13:28;98726.66;;;1.66;88.09
55604;BME280;41468;48.838;9.330;2023-01-26T10:15:59;98723.88;;;1.71;87.67
55604;BME280;41468;48.838;9.330;2023-01-26T10:18:57;98718.50;;;1.71;88.17
55604;BME280;41468;48.838;9.330;2023-01-26T10:21:30;98724.19;;;1.56;88.78
55604;BME280;41468;48.838;9.330;2023-01-26T10:24:00;98724.56;;;1.49;88.25
55604;BME280;41468;48.838;9.330;2023-01-26T10:26:32;98718.31;;;1.54;88.72
55604;BME280;41468;48.838;9.330;2023-01-26T10:28:59;98716.50;;;1.63;87.27
55604;BME280;41468;48.838;9.330;2023-01-26T10:31:37;98717.59;;;1.62;87.12
55604;BME280;41468;48.838;9.330;2023-01-26T10:34:22;98723.69;;;1.54;87.38
55604;BME280;41468;48.838;9.330;2023-01-26T10:36:54;98722.06;;;1.53;87.76
55604;BME280;41468;48.838;9.330;2023-01-26T10:39:22;98721.97;;;1.44;87.64
55604;BME280;41468;48.838;9.330;2023-01-26T10:42:00;98719.88;;;1.55;86.34
55604;BME280;41468;48.838;9.330;2023-01-26T10:44:34;98720.66;;;1.42;86.84
55604;BME280;41468;48.838;9.330;2023-01-26T10:47:13;98719.69;;;1.38;86.96
55604;BME280;41468;48.838;9.330;2023-01-26T10:49:45;98716.91;;;1.43;87.46
55604;BME280;41468;48.838;9.330;2023-01-26T10:52:20;98716.31;;;1.46;87.10
55604;BME280;41468;48.838;9.330;2023-01-26T10:54:48;98713.81;;;1.49;86.81
55604;BME280;41468;48.838;9.330;2023-01-26T10:57:27;98716.69;;;1.53;87.10
55604;BME280;41468;48.838;9.330;2023-01-26T10:59:56;98718.91;;;1.51;86.57
55604;BME280;41468;48.838;9.330;2023-01-26T11:02:29;98713.53;;;1.51;86.78
55604;BME280;41468;48.838;9.330;2023-01-26T11:07:37;98714.78;;;1.40;86.43
55604;BME280;41468;48.838;9.330;2023-01-26T11:10:21;98717.69;;;1.29;86.48
55604;BME280;41468;48.838;9.330;2023-01-26T11:12:50;98707.09;;;1.33;85.99
55604;BME280;41468;48.838;9.330;2023-01-26T11:15:26;98701.72;;;1.33;86.37
55604;BME280;41468;48.838;9.330;2023-01-26T11:18:35;98700.94;;;1.32;86.34
55604;BME280;41468;48.838;9.330;2023-01-26T11:24:24;98698.53;;;1.45;86.93
55604;BME280;41468;48.838;9.330;2023-01-26T11:32:45;98694.44;;;1.33;86.89
55604;BME280;41468;48.838;9.330;2023-01-26T11:35:30;98689.16;;;1.42;87.44
55604;BME280;41468;48.838;9.330;2023-01-26T11:38:56;98694.16;;;1.35;87.83
55604;BME280;41468;48.838;9.330;2023-01-26T11:41:38;98684.88;;;1.27;88.14
55604;BME280;41468;48.838;9.330;2023-01-26T11:44:15;98683.00;;;1.28;87.98
55604;BME280;41468;48.838;9.330;2023-01-26T11:48:10;98683.19;;;1.31;87.92
55604;BME280;41468;48.838;9.330;2023-01-26T11:50:23;98678.63;;;1.46;87.33
55604;BME280;41468;48.838;9.330;2023-01-26T11:53:18;98669.34;;;1.52;86.42
55604;BME280;41468;48.838;9.330;2023-01-26T11:56:00;98674.22;;;1.36;86.94
55604;BME280;41468;48.838;9.330;2023-01-26T11:58:31;98664.47;;;1.26;87.44
55604;BME280;41468;48.838;9.330;2023-01-26T12:01:10;98664.56;;;1.35;87.21
55604;BME280;41468;48.838;9.330;2023-01-26T12:03:44;98661.28;;;1.52;87.26
55604;BME280;41468;48.838;9.330;2023-01-26T12:09:33;98652.69;;;1.50;86.41
55604;BME280;41468;48.838;9.330;2023-01-26T12:12:12;98651.72;;;1.32;87.04
55604;BME280;41468;48.838;9.330;2023-01-26T12:14:48;98648.34;;;1.40;87.21
55604;BME280;41468;48.838;9.330;2023-01-26T12:17:23;98645.53;;;1.45;86.15
55604;BME280;41468;48.838;9.330;2023-01-26T12:20:06;98642.94;;;1.54;86.05
55604;BME280;41468;48.838;9.330;2023-01-26T12:22:41;98643.75;;;1.41;86.57
55604;BME280;41468;48.838;9.330;2023-01-26T12:25:22;98645.66;;;1.40;86.29
55604;BME280;41468;48.838;9.330;2023-01-26T12:28:07;98631.56;;;1.57;86.16
55604;BME280;41468;48.838;9.330;2023-01-26T12:33:11;98635.47;;;1.51;86.27
55604;BME280;41468;48.838;9.330;2023-01-26T12:35:57;98626.22;;;1.29;86.93
55604;BME280;41468;48.838;9.330;2023-01-26T12:38:54;98622.13;;;1.46;86.53
55604;BME280;41468;48.838;9.330;2023-01-26T12:44:27;98613.94;;;1.51;86.74
55604;BME280;41468;48.838;9.330;2023-01-26T12:47:07;98613.63;;;1.52;86.42
55604;BME280;41468;48.838;9.330;2023-01-26T12:49:44;98610.25;;;1.47;86.64
55604;BME280;41468;48.838;9.330;2023-01-26T12:54:48;98607.66;;;1.42;87.30
55604;BME280;41468;48.838;9.330;2023-01-26T12:57:21;98610.34;;;1.42;86.55
55604;BME280;41468;48.838;9.330;2023-01-26T12:59:50;98611.53;;;1.49;86.89
55604;BME280;41468;48.838;9.330;2023-01-26T13:02:25;98607.06;;;1.45;86.49
55604;BME280;41468;48.838;9.330;2023-01-26T13:04:57;98603.97;;;1.38;86.95
55604;BME280;41468;48.838;9.330;2023-01-26T13:12:56;98596.69;;;1.38;86.99
55604;BME280;41468;48.838;9.330;2023-01-26T13:15:28;98605.97;;;1.46;85.45
55604;BME280;41468;48.838;9.330;2023-01-26T13:18:00;98603.28;;;1.32;85.53
55604;BME280;41468;48.838;9.330;2023-01-26T13:20:45;98598.69;;;1.46;84.90
55604;BME280;41468;48.838;9.330;2023-01-26T13:26:16;98601.66;;;1.45;84.04
55604;BME280;41468;48.838;9.330;2023-01-26T13:28:44;98590.53;;;1.38;84.01
55604;BME280;41468;48.838;9.330;2023-01-26T13:31:11;98588.31;;;1.40;84.38
55604;BME280;41468;48.838;9.330;2023-01-26T13:33:47;98587.75;;;1.43;84.70
55604;BME280;41468;48.838;9.330;2023-01-26T13:36:16;98598.69;;;1.46;83.90
55604;BME280;41468;48.838;9.330;2023-01-26T13:38:57;98589.31;;;1.44;84.65
55604;BME280;41468;48.838;9.330;2023-01-26T13:41:25;98585.84;;;1.43;84.88
55604;BME280;41468;48.838;9.330;2023-01-26T13:44:06;98582.72;;;1.50;84.70
55604;BME280;41468;48.838;9.330;2023-01-26T13:46:38;98590.41;;;1.57;83.64
55604;BME280;41468;48.838;9.330;2023-01-26T13:49:22;98596.66;;;1.66;83.41
55604;BME280;41468;48.838;9.330;2023-01-26T13:51:49;98605.44;;;1.71;82.59
55604;BME280;41468;48.838;9.330;2023-01-26T13:54:16;98595.09;;;1.65;83.13
55604;BME280;41468;48.838;9.330;2023-01-26T13:57:03;98599.88;;;1.54;82.96
55604;BME280;41468;48.838;9.330;2023-01-26T13:59:30;98600.16;;;1.52;82.80
55604;BME280;41468;48.838;9.330;2023-01-26T14:01:58;98604.06;;;1.46;82.38
55604;BME280;41468;48.838;9.330;2023-01-26T14:04:30;98598.88;;;1.50;82.81
55604;BME280;41468;48.838;9.330;2023-01-26T14:07:12;98607.97;;;1.54;83.30
55604;BME280;41468;48.838;9.330;2023-01-26T14:09:54;98605.47;;;1.30;83.66
55604;BME280;41468;48.838;9.330;2023-01-26T14:12:24;98604.59;;;1.35;84.46
55604;BME280;41468;48.838;9.330;2023-01-26T14:14:55;98610.94;;;1.39;84.12
55604;BME280;41468;48.838;9.330;2023-01-26T14:17:31;98610.25;;;1.47;83.93
55604;BME280;41468;48.838;9.330;2023-01-26T14:19:58;98603.78;;;1.48;83.48
55604;BME280;41468;48.838;9.330;2023-01-26T14:22:26;98605.88;;;1.37;84.60
55604;BME280;41468;48.838;9.330;2023-01-26T14:24:53;98607.47;;;1.38;84.82